Time;durP1;ratioP1;P1;durP2;ratioP2;P2;SDS_P1;SDS_P2;PMS_P1;PMS_P2;Temp;Humidity;BMP_temperature;BMP_pressure;BME280_temperature;BME280_humidity;BME280_pressure;Samples;Min_cycle;Max_cycle;Signal;HPM_P1;HPM_P2
2022/11/16 00:01:33;;;;;;;8.07;4.77;;;14.90;71.70;;;17.36;52.22;100207.53;5074609;28;20212;-60
2022/11/16 00:04:03;;;;;;;7.73;4.43;;;14.90;71.70;;;17.38;52.54;100210.78;5074897;28;20707;-61
2022/11/16 00:06:30;;;;;;;5.10;4.17;;;14.90;71.70;;;17.32;52.50;100207.22;5073259;28;20193;-58
2022/11/16 00:11:51;;;;;;;4.27;3.87;;;14.90;71.70;;;17.30;52.65;100200.50;5074149;28;20213;-58
2022/11/16 00:14:19;;;;;;;5.00;4.50;;;14.90;71.70;;;17.30;52.74;100198.66;5078126;28;20200;-58
2022/11/16 00:16:46;;;;;;;4.83;4.20;;;14.90;71.70;;;17.27;52.77;100198.28;5086752;28;20194;-59
2022/11/16 00:19:13;;;;;;;5.90;4.60;;;14.80;71.60;;;17.33;52.77;100197.38;5074792;28;20192;-60
2022/11/16 00:21:40;;;;;;;3.90;3.60;;;14.90;71.80;;;17.34;52.62;100194.47;5074320;28;20204;-58
2022/11/16 00:24:11;;;;;;;4.57;4.13;;;14.90;71.70;;;17.27;52.49;100198.28;5064137;28;20190;-55
2022/11/16 00:26:39;;;;;;;5.20;4.50;;;14.90;71.60;;;17.18;52.66;100197.03;5054363;28;20666;-56
2022/11/16 00:29:13;;;;;;;4.10;3.70;;;14.80;71.50;;;17.20;52.64;100193.09;5054505;28;20713;-60
2022/11/16 00:31:40;;;;;;;4.63;4.13;;;14.90;71.70;;;17.19;52.56;100195.97;5058547;28;20693;-57
2022/11/16 00:34:08;;;;;;;6.77;4.17;;;14.80;71.60;;;17.18;53.14;100192.53;5074297;28;20248;-59
2022/11/16 00:36:35;;;;;;;4.23;3.87;;;14.80;71.70;;;17.25;52.91;100185.22;5074287;28;20201;-59
2022/11/16 00:39:03;;;;;;;6.73;4.03;;;14.90;71.90;;;17.31;52.72;100186.94;5074425;28;20557;-60
2022/11/16 00:41:30;;;;;;;5.17;3.77;;;14.90;72.00;;;17.25;52.84;100182.56;5068490;28;20271;-56
2022/11/16 00:43:57;;;;;;;4.87;4.07;;;14.80;72.10;;;17.31;52.94;100178.16;5054636;28;20197;-57
2022/11/16 00:46:25;;;;;;;5.07;3.93;;;14.90;72.40;;;17.35;52.97;100180.13;5054325;28;20193;-60
2022/11/16 00:48:52;;;;;;;5.13;4.23;;;14.90;72.50;;;17.34;53.16;100183.84;5073145;28;20189;-58
2022/11/16 00:51:20;;;;;;;4.30;3.90;;;14.80;72.70;;;17.32;53.02;100182.44;5073700;28;20216;-59
2022/11/16 00:53:47;;;;;;;5.57;4.20;;;14.80;72.70;;;17.29;53.08;100186.38;5074216;28;20212;-58
2022/11/16 00:56:14;;;;;;;4.13;3.73;;;14.80;72.70;;;17.25;53.36;100174.59;5073864;28;20246;-58
2022/11/16 00:58:41;;;;;;;5.37;3.73;;;14.80;72.80;;;17.28;53.20;100166.13;5058476;28;20194;-60
2022/11/16 01:01:10;;;;;;;4.73;4.23;;;14.80;72.80;;;17.21;53.41;100167.31;5053968;28;20210;-60
2022/11/16 01:03:39;;;;;;;5.30;4.37;;;14.80;72.80;;;17.22;52.87;100167.06;5054045;28;20193;-59
2022/11/16 01:06:12;;;;;;;4.40;4.00;;;14.80;72.80;;;17.16;53.01;100169.84;5054035;28;20204;-60
2022/11/16 01:08:41;;;;;;;4.53;4.00;;;14.70;72.50;;;17.06;53.18;100161.63;5054240;28;20761;-60
2022/11/16 01:13:59;;;;;;;7.07;4.20;;;14.70;72.40;;;16.96;53.69;100148.09;5056047;28;20214;-60
2022/11/16 01:16:26;;;;;;;5.30;4.60;;;14.70;72.30;;;16.96;53.27;100154.22;5088020;28;20193;-57
2022/11/16 01:18:55;;;;;;;4.83;4.33;;;14.60;72.20;;;16.96;53.41;100154.22;5073487;28;20193;-60
2022/11/16 01:21:23;;;;;;;5.00;4.03;;;14.60;72.20;;;16.89;53.29;100149.03;5072010;28;20205;-58
2022/11/16 01:23:50;;;;;;;4.40;4.00;;;14.60;72.30;;;16.93;53.35;100147.53;5073620;28;20208;-60
2022/11/16 01:26:18;;;;;;;3.90;3.60;;;14.60;72.20;;;16.96;53.39;100148.91;5073614;28;20185;-60
2022/11/16 01:28:45;;;;;;;5.53;4.40;;;14.60;72.30;;;16.94;53.32;100145.69;5073542;28;20196;-59
2022/11/16 01:31:14;;;;;;;3.97;3.57;;;14.60;72.10;;;16.98;53.02;100141.50;5082688;28;20308;-60
2022/11/16 01:33:41;;;;;;;6.43;4.17;;;14.60;72.10;;;16.96;53.11;100142.78;5073699;28;20213;-60
2022/11/16 01:36:16;;;;;;;6.60;4.43;;;14.50;71.90;;;16.96;52.92;100138.28;5073534;28;20189;-61
2022/11/16 01:38:45;;;;;;;4.93;4.47;;;14.60;72.10;;;16.94;53.14;100135.03;5073709;28;20553;-60
2022/11/16 01:41:13;;;;;;;4.80;4.10;;;14.60;71.90;;;17.00;52.87;100142.09;5073044;28;20258;-60
2022/11/16 01:43:56;;;;;;;5.63;3.73;;;14.60;72.00;;;17.06;53.02;100127.88;5073281;28;20193;-60
2022/11/16 01:46:25;;;;;;;4.17;3.70;;;14.60;72.20;;;17.07;52.46;100120.72;5073352;28;20634;-60
2022/11/16 01:49:00;;;;;;;6.87;4.33;;;14.60;71.90;;;17.06;52.29;100122.56;5070619;28;20673;-61
2022/11/16 01:51:30;;;;;;;4.17;3.77;;;14.60;71.70;;;17.08;52.47;100123.13;5072817;28;20610;-60
2022/11/16 01:54:01;;;;;;;4.60;4.20;;;14.60;71.50;;;17.10;52.54;100117.56;5075917;28;20212;-58
2022/11/16 01:56:32;;;;;;;4.23;3.83;;;14.60;71.60;;;17.11;52.19;100114.69;5077385;28;20638;-58
2022/11/16 01:58:59;;;;;;;4.00;3.60;;;14.60;71.60;;;17.13;52.19;100112.63;5077504;28;20182;-59
2022/11/16 02:01:26;;;;;;;4.10;3.70;;;14.60;71.60;;;17.17;52.18;100113.75;5077151;28;20216;-60
2022/11/16 02:03:53;;;;;;;3.97;3.60;;;14.60;71.80;;;17.19;52.15;100117.00;5077317;28;20185;-59
2022/11/16 02:06:38;;;;;;;4.53;3.60;;;14.60;71.80;;;17.17;52.35;100112.94;5075444;28;20201;-60
2022/11/16 02:09:54;;;;;;;5.23;3.77;;;14.60;71.80;;;17.16;52.05;100106.84;5077101;28;20193;-59
2022/11/16 02:12:49;;;;;;;4.43;4.00;;;14.60;71.80;;;17.15;52.08;100102.53;5075988;28;20213;-60
2022/11/16 02:15:29;;;;;;;3.60;3.30;;;14.60;71.60;;;17.13;52.28;100099.31;5088834;28;20220;-61
2022/11/16 02:18:15;;;;;;;4.23;3.77;;;14.60;71.40;;;17.13;52.17;100091.34;5079033;28;20238;-60
2022/11/16 02:21:19;;;;;;;4.50;3.40;;;14.60;71.60;;;17.09;51.91;100094.69;5076531;28;20234;-59
2022/11/16 02:24:05;;;;;;;4.60;4.20;;;14.50;71.30;;;17.11;51.86;100089.94;5059232;28;20193;-58
2022/11/16 02:27:06;;;;;;;3.93;3.63;;;14.50;71.40;;;17.08;52.16;100087.75;5056746;28;20189;-59
2022/11/16 02:29:38;;;;;;;4.30;3.90;;;14.50;71.40;;;17.09;51.56;100090.16;5057018;28;20720;-58
2022/11/16 02:32:12;;;;;;;5.87;3.93;;;14.50;71.30;;;17.07;51.70;100097.56;5056477;28;20698;-58
2022/11/16 02:34:46;;;;;;;4.90;4.37;;;14.50;71.10;;;17.09;51.78;100097.34;5067710;28;20216;-61
2022/11/16 02:37:19;;;;;;;4.47;3.83;;;14.50;71.20;;;17.08;51.71;100093.88;5076387;28;20235;-56
2022/11/16 02:39:53;;;;;;;5.77;4.20;;;14.50;71.10;;;17.06;51.35;100090.66;5074645;28;20190;-58
2022/11/16 02:42:28;;;;;;;4.63;3.70;;;14.50;70.80;;;17.04;51.68;100094.56;5075850;28;20217;-58
2022/11/16 02:44:59;;;;;;;4.50;4.10;;;14.50;70.70;;;17.02;51.42;100094.00;5076515;28;20189;-60
2022/11/16 02:47:32;;;;;;;4.23;3.57;;;14.40;70.60;;;17.02;51.35;100094.00;5076468;28;20185;-60
2022/11/16 02:50:06;;;;;;;4.50;4.03;;;14.40;70.60;;;16.98;51.68;100088.34;5076500;28;20680;-57
2022/11/16 02:52:36;;;;;;;4.20;3.80;;;14.40;70.60;;;17.00;51.83;100091.56;5074778;28;20216;-60
2022/11/16 02:55:05;;;;;;;5.20;4.70;;;14.40;70.90;;;17.00;51.91;100080.94;5076357;28;20747;-59
2022/11/16 02:57:52;;;;;;;4.60;4.10;;;14.40;71.10;;;16.99;52.04;100079.31;5060436;28;20198;-61
2022/11/16 03:00:24;;;;;;;4.17;3.80;;;14.40;71.20;;;17.01;51.65;100079.09;5055994;28;20202;-60
2022/11/16 03:03:16;;;;;;;4.53;3.90;;;14.40;72.00;;;16.92;51.91;100083.94;5055967;28;20217;-58
2022/11/16 03:05:49;;;;;;;4.90;4.40;;;14.40;71.30;;;16.90;52.27;100086.81;5056063;28;20183;-62
2022/11/16 03:08:25;;;;;;;6.87;4.83;;;14.40;71.50;;;16.86;52.22;100084.88;5055931;28;20178;-60
2022/11/16 03:13:46;;;;;;;4.47;4.07;;;14.30;71.60;;;16.89;52.71;100092.38;5064875;28;20204;-60
2022/11/16 03:16:21;;;;;;;4.83;4.37;;;14.40;72.00;;;16.81;52.67;100098.03;5092011;28;20630;-59
2022/11/16 03:18:52;;;;;;;6.03;5.17;;;14.30;72.00;;;16.81;53.37;100104.16;5075713;28;20219;-60
2022/11/16 03:21:29;;;;;;;4.83;4.33;;;14.30;72.70;;;16.76;53.28;100105.88;5075475;28;20217;-59
2022/11/16 03:23:56;;;;;;;5.73;4.97;;;14.30;72.70;;;16.75;53.62;100104.28;5075810;28;20196;-59
2022/11/16 03:26:34;;;;;;;5.87;5.20;;;14.20;73.10;;;16.70;53.93;100107.63;5075610;28;20200;-58
2022/11/16 03:29:12;;;;;;;6.47;5.53;;;14.20;73.70;;;16.60;54.03;100102.06;5075263;28;20189;-58
2022/11/16 03:31:48;;;;;;;8.17;4.67;;;14.10;73.70;;;16.54;54.55;100099.53;5074284;28;20562;-60
2022/11/16 03:34:22;;;;;;;6.93;4.90;;;14.10;74.20;;;16.54;54.55;100096.88;5075360;28;20201;-59
2022/11/16 03:36:52;;;;;;;8.67;5.57;;;14.10;74.50;;;16.55;55.04;100098.47;5075608;28;20178;-58
2022/11/16 03:39:24;;;;;;;8.43;5.87;;;14.00;75.20;;;16.54;55.16;100094.22;5075468;28;20177;-60
2022/11/16 03:41:55;;;;;;;5.83;5.20;;;14.00;75.50;;;16.53;55.27;100101.38;5075212;28;20266;-59
2022/11/16 03:44:22;;;;;;;5.60;5.10;;;14.00;75.70;;;16.50;55.66;100093.81;5075416;28;20173;-60
2022/11/16 03:46:50;;;;;;;7.57;5.73;;;13.90;76.00;;;16.48;55.58;100087.94;5074085;28;20252;-59
2022/11/16 03:49:21;;;;;;;7.93;5.70;;;13.90;76.10;;;16.44;55.72;100085.97;5075077;28;20190;-60
2022/11/16 03:51:49;;;;;;;6.60;6.00;;;13.90;76.60;;;16.40;56.17;100090.13;5074860;28;20612;-60
2022/11/16 03:54:16;;;;;;;7.20;6.20;;;13.80;76.70;;;16.36;56.15;100088.94;5074739;28;20739;-59
2022/11/16 03:56:43;;;;;;;6.73;6.03;;;13.80;76.50;;;16.31;56.62;100088.84;5075030;28;20194;-60
2022/11/16 03:59:10;;;;;;;9.47;6.13;;;13.80;77.00;;;16.23;56.26;100080.16;5074966;28;20283;-58
2022/11/16 04:01:37;;;;;;;6.93;6.23;;;13.70;76.60;;;16.22;56.58;100083.84;5066980;28;20241;-60
2022/11/16 04:24:10;;;;;;;7.53;6.23;;;13.70;76.90;;;16.22;56.67;100081.19;5054792;28;20186;-58
2022/11/16 04:28:11;;;;;;;10.70;7.27;;;13.50;77.70;;;15.95;57.31;100065.88;5072917;28;20197;-58
2022/11/16 04:29:06;;;;;;;11.50;7.83;;;13.50;77.90;;;15.90;56.97;100063.09;5073290;28;20201;-59
2022/11/16 04:39:53;;;;;;;9.40;8.10;;;13.40;78.00;;;15.78;57.53;100068.34;5054253;28;20194;-59
2022/11/16 04:42:21;;;;;;;8.33;7.40;;;13.30;78.00;;;15.75;57.60;100049.41;5053490;28;20617;-57
2022/11/16 04:47:35;;;;;;;9.03;7.47;;;13.30;78.20;;;15.73;57.92;100051.47;5053039;28;20202;-60
2022/11/16 04:50:04;;;;;;;14.70;11.97;;;13.20;78.20;;;15.74;57.84;100053.88;5073387;28;20189;-60
2022/11/16 04:52:32;;;;;;;9.60;7.93;;;13.20;78.40;;;15.72;57.65;100044.53;5073340;28;20209;-57
2022/11/16 04:54:59;;;;;;;10.50;9.00;;;13.20;78.60;;;15.70;58.11;100047.41;5074064;28;20209;-57
2022/11/16 04:57:26;;;;;;;9.90;8.27;;;13.20;78.80;;;15.65;57.95;100044.63;5074044;28;20185;-57
2022/11/16 04:59:53;;;;;;;10.10;9.00;;;13.20;78.40;;;15.65;57.83;100041.97;5073106;28;20580;-58
2022/11/16 05:02:20;;;;;;;11.60;9.07;;;13.20;78.70;;;15.64;58.04;100050.16;5072967;28;20731;-60
2022/11/16 05:04:47;;;;;;;10.50;9.40;;;13.10;78.70;;;15.62;58.07;100049.59;5073432;28;20243;-59
2022/11/16 05:07:14;;;;;;;10.57;7.80;;;13.10;78.80;;;15.53;58.31;100051.72;5073833;28;20676;-60
2022/11/16 05:09:45;;;;;;;12.13;9.20;;;13.10;78.60;;;15.50;58.44;100045.03;5073301;28;20192;-59
2022/11/16 05:12:16;;;;;;;12.57;8.97;;;13.10;79.00;;;15.50;58.36;100042.38;5072651;28;20221;-58
2022/11/16 05:14:44;;;;;;;11.77;10.20;;;13.10;78.90;;;15.51;58.01;100045.84;5072490;28;20818;-59
2022/11/16 05:17:12;;;;;;;11.03;9.83;;;13.00;78.90;;;15.51;58.47;100046.66;5081893;28;20246;-58
2022/11/16 05:22:25;;;;;;;12.20;9.47;;;13.00;78.90;;;15.40;58.95;100047.34;5073043;28;20225;-60
2022/11/16 05:24:53;;;;;;;11.23;10.03;;;13.00;79.10;;;15.41;58.65;100037.56;5073398;28;20597;-58
2022/11/16 05:27:23;;;;;;;11.10;9.90;;;13.00;79.20;;;15.38;58.78;100035.38;5073163;28;20650;-58
2022/11/16 05:29:50;;;;;;;12.07;9.73;;;12.90;79.30;;;15.34;58.67;100047.44;5052813;28;20570;-60
2022/11/16 05:32:18;;;;;;;11.27;10.03;;;12.90;79.30;;;15.33;58.72;100056.44;5052117;28;20726;-59
2022/11/16 05:34:46;;;;;;;11.73;10.40;;;13.00;79.70;;;15.27;58.83;100041.41;5053018;28;20217;-59
2022/11/16 05:37:13;;;;;;;12.40;10.90;;;12.90;79.30;;;15.21;58.82;100043.13;5053407;28;20190;-59
2022/11/16 05:39:41;;;;;;;12.57;11.27;;;12.80;79.20;;;15.18;59.28;100043.56;5052878;28;20185;-59
2022/11/16 05:42:09;;;;;;;12.40;10.57;;;12.80;79.50;;;15.11;59.21;100040.16;5055414;28;20225;-58
2022/11/16 05:44:36;;;;;;;13.97;11.90;;;12.80;79.50;;;15.03;59.29;100042.28;5073759;28;20193;-59
2022/11/16 05:47:04;;;;;;;13.90;11.47;;;12.70;79.40;;;15.01;59.68;100031.09;5073043;28;20888;-58
2022/11/16 05:49:31;;;;;;;13.67;12.07;;;12.70;80.00;;;15.02;59.68;100040.69;5073091;28;20185;-60
2022/11/16 05:51:58;;;;;;;13.30;10.97;;;12.70;80.00;;;15.03;59.83;100055.53;5073023;28;20258;-59
2022/11/16 05:54:25;;;;;;;15.27;12.77;;;12.70;80.20;;;15.01;59.91;100037.22;5073817;28;20193;-58
2022/11/16 05:56:53;;;;;;;14.63;13.03;;;12.60;80.10;;;14.99;59.65;100049.06;5072667;28;20246;-59
2022/11/16 05:59:22;;;;;;;15.90;13.13;;;12.60;80.20;;;14.89;59.78;100041.63;5073085;28;20610;-60
2022/11/16 06:01:50;;;;;;;16.03;13.17;;;12.60;80.00;;;14.86;59.80;100034.91;5072774;28;20270;-59
2022/11/16 06:04:18;;;;;;;14.07;12.57;;;12.50;80.20;;;14.82;59.96;100047.00;5073109;28;20679;-57
2022/11/16 06:06:51;;;;;;;15.10;13.50;;;12.50;80.10;;;14.75;59.96;100054.19;5075754;28;20189;-58
2022/11/16 06:09:18;;;;;;;16.67;14.60;;;12.50;80.20;;;14.66;60.35;100050.22;5073209;28;20288;-60
2022/11/16 06:11:45;;;;;;;15.37;12.47;;;12.40;80.10;;;14.62;60.28;100049.00;5072466;28;20220;-60
2022/11/16 06:14:12;;;;;;;17.77;13.83;;;12.40;80.30;;;14.68;60.36;100047.34;5077491;28;20208;-62
2022/11/16 06:16:40;;;;;;;21.53;14.60;;;12.40;80.60;;;14.71;60.39;100049.56;5086662;28;20209;-59
2022/11/16 06:19:08;;;;;;;17.27;15.37;;;12.40;80.60;;;14.46;60.33;100052.22;5076197;28;20592;-59
2022/11/16 06:21:35;;;;;;;15.10;13.17;;;12.30;80.30;;;14.53;60.56;100050.31;5093936;28;20273;-61
2022/11/16 06:24:07;;;;;;;15.47;13.40;;;12.30;80.50;;;14.49;60.44;100051.78;5094292;28;20192;-60
2022/11/16 06:26:35;;;;;;;18.20;14.50;;;12.30;80.50;;;14.56;60.73;100060.47;5080753;28;20668;-60
2022/11/16 06:29:03;;;;;;;17.03;15.17;;;12.30;81.00;;;14.56;60.46;100057.84;5073022;28;20189;-58
2022/11/16 06:31:30;;;;;;;15.90;14.03;;;12.30;80.80;;;14.55;60.22;100058.03;5072488;28;20220;-60
2022/11/16 06:33:58;;;;;;;17.50;13.73;;;12.30;80.70;;;14.54;60.16;100057.25;5074355;28;20193;-61
2022/11/16 06:36:27;;;;;;;16.60;14.80;;;12.30;80.60;;;14.61;60.49;100058.00;5091998;28;20263;-60
2022/11/16 06:38:54;;;;;;;19.43;15.97;;;12.30;81.10;;;14.50;60.46;100071.13;5077669;28;20195;-58
2022/11/16 06:41:21;;;;;;;15.93;14.00;;;12.20;80.60;;;14.44;60.50;100062.22;5079157;28;20283;-59
2022/11/16 06:43:49;;;;;;;22.20;15.50;;;12.20;80.60;;;14.54;60.53;100062.53;5080839;28;20532;-58
2022/11/16 06:46:16;;;;;;;15.27;13.67;;;12.20;80.80;;;14.55;60.27;100053.56;5080849;28;20189;-59
2022/11/16 06:48:43;;;;;;;17.27;14.03;;;12.20;80.60;;;14.55;60.19;100058.84;5081975;28;20197;-60
2022/11/16 06:51:12;;;;;;;17.90;13.93;;;12.20;80.70;;;14.61;60.12;100063.28;5079038;28;20603;-61
2022/11/16 06:53:39;;;;;;;19.37;14.70;;;12.20;80.70;;;14.64;60.11;100065.50;5077399;28;20185;-57
2022/11/16 06:56:09;;;;;;;18.20;15.37;;;12.20;80.80;;;14.67;60.11;100073.00;5075935;28;20221;-59
2022/11/16 06:58:36;;;;;;;15.23;13.63;;;12.20;81.10;;;14.63;59.89;100061.25;5076390;28;20661;-59
2022/11/16 07:01:07;;;;;;;16.83;14.30;;;12.20;80.80;;;14.62;59.80;100059.59;5076527;28;20224;-60
2022/11/16 07:03:34;;;;;;;18.37;14.07;;;12.20;80.60;;;14.67;60.05;100064.25;5077650;28;20212;-58
2022/11/16 07:06:06;;;;;;;18.03;14.77;;;12.20;80.70;;;14.64;60.11;100070.00;5076140;28;20185;-58
2022/11/16 07:08:34;;;;;;;18.40;13.53;;;12.20;80.80;;;14.64;59.89;100073.44;5076552;28;20226;-57
2022/11/16 07:11:05;;;;;;;18.03;14.70;;;12.30;80.80;;;14.66;59.89;100071.41;5055650;28;20675;-61
2022/11/16 07:13:33;;;;;;;18.63;14.70;;;12.20;80.80;;;14.65;59.75;100075.06;5057250;28;20190;-60
2022/11/16 07:16:02;;;;;;;16.87;14.10;;;12.20;80.60;;;14.70;59.77;100075.22;5068825;28;20266;-59
2022/11/16 07:18:33;;;;;;;17.53;14.33;;;12.30;81.00;;;14.74;59.79;100076.41;5096308;28;20184;-61
2022/11/16 07:21:05;;;;;;;18.93;15.47;;;12.30;81.10;;;14.70;59.76;100083.19;5076010;28;20266;-59
2022/11/16 07:23:34;;;;;;;16.57;14.10;;;12.20;80.80;;;14.69;60.02;100083.41;5074763;28;20351;-59
2022/11/16 07:26:03;;;;;;;19.23;15.57;;;12.30;81.00;;;14.71;60.23;100100.69;5075674;28;20673;-59
2022/11/16 07:28:30;;;;;;;19.27;15.37;;;12.20;80.90;;;14.74;59.74;100094.94;5076174;28;20204;-59
2022/11/16 07:31:01;;;;;;;18.17;15.50;;;12.20;80.80;;;14.69;59.79;100107.25;5076613;28;20197;-61
2022/11/16 07:33:28;;;;;;;20.57;16.13;;;12.20;80.80;;;14.64;59.80;100110.50;5056332;28;20651;-60
2022/11/16 07:36:00;;;;;;;17.00;15.03;;;12.20;81.00;;;14.59;60.33;100117.50;5055785;28;20233;-57
2022/11/16 07:38:29;;;;;;;17.53;14.87;;;12.20;81.20;;;14.51;60.58;100121.22;5064143;28;20201;-56
2022/11/16 07:41:00;;;;;;;17.37;15.23;;;12.10;81.20;;;14.43;61.08;100118.84;5090595;28;20211;-59
2022/11/16 07:43:28;;;;;;;22.27;17.83;;;12.10;81.70;;;14.41;61.15;100126.19;5075054;28;20185;-59
2022/11/16 07:45:57;;;;;;;20.60;15.03;;;12.10;81.70;;;14.24;61.31;100123.22;5075078;28;20716;-58
2022/11/16 07:48:44;;;;;;;18.13;14.97;;;12.00;81.70;;;14.23;62.09;100123.44;5075659;28;20201;-57
2022/11/16 07:51:15;;;;;;;20.50;16.57;;;12.00;82.20;;;14.14;62.58;100133.44;5075454;28;20217;-59
2022/11/16 07:53:43;;;;;;;18.47;15.80;;;11.90;82.80;;;14.03;62.44;100133.31;5076335;28;20260;-57
2022/11/16 07:56:12;;;;;;;20.50;17.10;;;11.90;82.90;;;13.85;63.44;100141.97;5076621;28;20208;-59
2022/11/16 07:58:39;;;;;;;19.57;16.57;;;11.80;83.50;;;13.73;63.56;100137.53;5075999;28;20267;-60
2022/11/16 08:01:13;;;;;;;18.60;15.83;;;11.70;83.70;;;13.71;63.83;100140.38;5075705;28;20209;-58
2022/11/16 08:03:42;;;;;;;20.77;17.33;;;11.60;84.00;;;13.71;63.84;100144.84;5074561;28;20173;-57
2022/11/16 08:06:14;;;;;;;17.00;14.70;;;11.60;84.20;;;13.63;63.84;100142.44;5075817;28;20189;-59
2022/11/16 08:08:42;;;;;;;19.57;15.67;;;11.50;84.20;;;13.56;64.14;100145.94;5056045;28;20182;-59
2022/11/16 08:11:11;;;;;;;18.97;16.00;;;11.50;84.40;;;13.50;64.19;100144.09;5053756;28;20213;-60
2022/11/16 08:13:40;;;;;;;21.63;16.97;;;11.40;84.60;;;13.49;64.57;100153.06;5060056;28;20246;-58
2022/11/16 08:16:11;;;;;;;19.50;16.20;;;11.40;85.00;;;13.46;64.69;100156.13;5086849;28;20518;-61
2022/11/16 08:18:41;;;;;;;20.60;16.73;;;11.40;85.20;;;13.35;64.58;100162.06;5056729;28;20194;-59
2022/11/16 08:21:12;;;;;;;20.20;16.37;;;11.30;85.00;;;13.27;65.27;100154.34;5073772;28;20300;-57
2022/11/16 08:23:40;;;;;;;21.00;17.50;;;11.20;85.20;;;13.29;65.21;100162.03;5075990;28;20623;-59
2022/11/16 08:26:13;;;;;;;21.57;16.93;;;11.20;85.60;;;13.26;65.28;100168.59;5076636;28;20193;-60
2022/11/16 08:28:42;;;;;;;19.77;17.23;;;11.20;85.90;;;13.14;65.55;100164.94;5075658;28;20223;-60
2022/11/16 08:31:12;;;;;;;20.90;17.80;;;11.10;85.80;;;13.14;65.90;100161.47;5076998;28;20558;-57
2022/11/16 08:33:39;;;;;;;20.00;16.53;;;11.10;86.20;;;13.15;65.76;100166.53;5076787;28;20279;-60
2022/11/16 08:36:11;;;;;;;19.90;16.40;;;11.10;86.50;;;13.20;66.03;100163.28;5067181;28;20662;-61
2022/11/16 08:38:40;;;;;;;21.03;17.10;;;11.10;86.70;;;13.30;65.88;100166.31;5054789;28;20189;-61
2022/11/16 08:41:07;;;;;;;22.63;17.53;;;11.10;87.00;;;13.33;65.60;100156.16;5054301;28;20205;-59
2022/11/16 08:43:38;;;;;;;22.10;17.73;;;11.10;86.90;;;13.36;65.36;100166.31;5054948;28;20721;-60
2022/11/16 08:46:06;;;;;;;19.47;15.70;;;11.10;86.90;;;13.35;65.33;100171.81;5054029;28;20269;-59
2022/11/16 08:48:33;;;;;;;21.13;17.77;;;11.10;86.80;;;13.39;65.45;100168.53;5072389;28;20215;-60
2022/11/16 08:51:02;;;;;;;20.50;17.00;;;11.10;87.10;;;13.41;65.44;100174.44;5077103;28;20213;-60
2022/11/16 08:53:44;;;;;;;19.77;16.37;;;11.10;87.10;;;13.39;65.62;100171.19;5074146;28;20670;-58
2022/11/16 08:56:12;;;;;;;19.53;16.90;;;11.10;87.20;;;13.33;65.63;100185.25;5074199;28;20217;-60
2022/11/16 08:58:43;;;;;;;21.80;15.00;;;11.10;87.00;;;13.28;65.65;100182.41;5074166;28;20638;-58
2022/11/16 09:01:12;;;;;;;20.57;17.20;;;11.10;86.90;;;13.16;65.74;100184.03;5073455;28;20244;-59
2022/11/16 09:03:41;;;;;;;22.10;17.27;;;11.00;86.60;;;13.14;65.98;100188.72;5074078;28;20562;-62
2022/11/16 09:06:10;;;;;;;22.00;16.10;;;11.00;86.80;;;13.11;65.98;100190.94;5056458;28;20194;-59
2022/11/16 09:08:40;;;;;;;20.20;17.67;;;11.00;86.90;;;13.21;66.01;100192.16;5064300;28;20205;-60
2022/11/16 09:11:10;;;;;;;24.43;18.83;;;11.00;87.40;;;13.17;65.64;100180.34;5073173;28;20688;-60
2022/11/16 09:13:37;;;;;;;23.93;17.87;;;11.00;87.30;;;13.11;66.05;100186.47;5073891;28;20281;-59
2022/11/16 09:16:07;;;;;;;21.73;16.93;;;11.00;87.30;;;13.07;66.18;100185.28;5092272;28;20212;-59
2022/11/16 09:18:34;;;;;;;19.60;16.47;;;10.90;87.30;;;13.01;66.14;100186.03;5072753;28;20197;-59
2022/11/16 09:21:03;;;;;;;23.43;17.30;;;10.90;87.30;;;13.07;66.17;100190.56;5073521;28;20209;-58
2022/11/16 09:23:30;;;;;;;20.50;16.70;;;10.90;87.70;;;13.05;66.24;100192.53;5073914;28;20215;-58
2022/11/16 09:26:00;;;;;;;21.73;16.60;;;10.80;87.60;;;12.98;66.19;100190.94;5074308;28;20185;-58
2022/11/16 09:28:28;;;;;;;20.43;17.40;;;10.80;87.70;;;12.96;66.38;100193.75;5073703;28;20208;-59
2022/11/16 09:31:00;;;;;;;19.93;16.87;;;10.80;87.90;;;12.99;66.18;100203.91;5072864;28;20286;-59
2022/11/16 09:33:30;;;;;;;23.23;17.57;;;10.80;87.90;;;13.08;66.50;100202.72;5069880;28;20189;-63
2022/11/16 09:36:00;;;;;;;20.07;16.50;;;10.80;88.50;;;13.09;66.25;100204.38;5066380;28;20216;-61
2022/11/16 09:38:27;;;;;;;22.37;18.00;;;10.70;88.60;;;13.04;66.09;100206.78;5075150;28;20193;-60
2022/11/16 09:41:44;;;;;;;23.03;17.63;;;10.70;88.20;;;12.86;66.39;100206.53;5072754;28;20209;-60
2022/11/16 09:44:29;;;;;;;20.77;16.87;;;10.60;88.20;;;12.80;66.53;100210.00;5076120;28;20224;-65
2022/11/16 09:46:59;;;;;;;22.07;17.60;;;10.60;87.90;;;12.77;66.81;100210.41;5058142;28;20197;-60
2022/11/16 09:49:35;;;;;;;22.80;17.13;;;10.60;88.10;;;12.71;66.64;100205.94;5074725;28;20201;-60
2022/11/16 09:52:09;;;;;;;22.07;18.07;;;10.60;88.20;;;12.73;66.79;100206.53;5057450;28;20221;-58
2022/11/16 09:54:42;;;;;;;21.93;18.20;;;10.60;88.50;;;12.72;66.57;100212.81;5082216;28;20285;-58
2022/11/16 09:57:16;;;;;;;22.93;17.77;;;10.50;88.40;;;12.67;66.91;100215.28;5084367;28;20290;-62
2022/11/16 09:59:47;;;;;;;21.83;17.10;;;10.50;88.40;;;12.70;66.48;100212.22;5085327;28;20188;-58
2022/11/16 10:02:25;;;;;;;21.37;18.10;;;10.50;88.40;;;12.69;66.49;100216.69;5066989;28;20439;-60
2022/11/16 10:05:00;;;;;;;22.70;18.00;;;10.50;88.40;;;12.72;67.02;100218.09;5060045;28;20220;-62
2022/11/16 10:07:36;;;;;;;23.33;18.93;;;10.50;88.80;;;12.68;66.58;100216.91;5066433;28;20201;-62
2022/11/16 10:10:07;;;;;;;20.33;17.60;;;10.50;88.40;;;12.69;66.60;100216.69;5067193;28;20204;-62
2022/11/16 10:12:42;;;;;;;21.90;17.73;;;10.50;88.40;;;12.72;66.86;100220.75;5069245;28;20209;-60
2022/11/16 10:15:38;;;;;;;20.60;17.63;;;10.50;88.60;;;12.72;66.64;100218.09;5076835;28;20216;-59
2022/11/16 10:18:27;;;;;;;21.43;17.10;;;10.50;88.60;;;12.74;66.28;100216.09;5067797;28;20504;-62
2022/11/16 10:21:31;;;;;;;20.07;17.00;;;10.50;88.30;;;12.61;66.24;100221.34;5079673;28;20250;-60
2022/11/16 10:24:32;;;;;;;19.53;16.47;;;10.50;88.10;;;12.70;66.41;100214.84;5068516;28;20563;-60
2022/11/16 10:27:16;;;;;;;22.33;17.87;;;10.50;88.30;;;12.68;66.61;100214.25;5076004;28;20190;-60
2022/11/16 10:30:05;;;;;;;20.03;17.23;;;10.50;88.00;;;12.74;66.40;100221.38;5073651;28;20211;-60
2022/11/16 10:32:39;;;;;;;20.67;17.77;;;10.50;88.20;;;12.66;66.46;100209.19;5082492;28;20678;-59
2022/11/16 10:35:16;;;;;;;20.63;16.40;;;10.50;88.00;;;12.67;66.52;100210.00;5078487;28;20275;-60
2022/11/16 10:37:49;;;;;;;19.67;16.27;;;10.50;88.20;;;12.80;66.63;100207.38;5089851;28;20239;-59
2022/11/16 10:40:22;;;;;;;19.80;16.70;;;10.50;88.40;;;12.90;66.52;100213.06;5060847;28;20197;-59
2022/11/16 10:43:02;;;;;;;19.40;15.83;;;10.60;88.80;;;12.98;66.08;100207.56;5064334;28;20240;-59
2022/11/16 10:45:38;;;;;;;20.07;16.53;;;10.60;88.50;;;13.07;65.87;100210.88;5076531;28;20189;-60
2022/11/16 10:48:21;;;;;;;19.53;16.17;;;10.60;88.50;;;13.05;65.67;100212.88;5063041;28;20236;-60
2022/11/16 10:50:51;;;;;;;20.50;17.47;;;10.60;88.00;;;12.98;65.50;100212.06;5063056;28;20251;-62
2022/11/16 10:53:30;;;;;;;19.50;17.40;;;10.60;87.60;;;12.97;65.48;100211.25;5064085;28;20267;-60
2022/11/16 10:56:25;;;;;;;17.90;16.00;;;10.70;87.80;;;12.91;65.64;100212.03;5079417;28;20193;-59
2022/11/16 10:58:57;;;;;;;20.90;17.47;;;10.60;87.60;;;13.00;66.12;100208.19;5061750;28;20623;-60
2022/11/16 11:01:32;;;;;;;25.43;20.53;;;10.70;88.20;;;13.09;65.62;100209.66;5081000;28;20216;-65
2022/11/16 11:04:20;;;;;;;19.67;17.57;;;10.70;88.20;;;13.14;65.77;100207.22;5083088;28;20732;-61
2022/11/16 11:06:50;;;;;;;21.63;17.70;;;10.70;88.10;;;13.14;64.98;100206.41;5081914;28;20263;-60